createdAt,value
2023-02-08T00:02:22.624Z,-3.68
2023-02-08T00:05:24.555Z,-3.70
2023-02-08T00:08:26.040Z,-3.71
2023-02-08T00:11:27.813Z,-3.75
2023-02-08T00:14:29.440Z,-3.78
2023-02-08T00:17:31.119Z,-3.80
2023-02-08T00:20:32.630Z,-3.82
2023-02-08T00:23:34.213Z,-3.84
2023-02-08T00:26:35.861Z,-3.84
2023-02-08T00:29:37.465Z,-3.84
2023-02-08T00:32:39.306Z,-3.83
2023-02-08T00:35:40.869Z,-3.82
2023-02-08T00:38:42.580Z,-3.81
2023-02-08T00:41:44.685Z,-3.80
2023-02-08T00:44:46.436Z,-3.79
2023-02-08T00:47:48.013Z,-3.79
2023-02-08T00:50:59.711Z,-3.78
2023-02-08T00:54:01.331Z,-3.76
2023-02-08T00:57:03.112Z,-3.76
2023-02-08T01:00:06.380Z,-3.76
2023-02-08T01:03:07.931Z,-3.76
2023-02-08T01:06:13.957Z,-3.73
2023-02-08T01:09:15.634Z,-3.71
2023-02-08T01:12:17.318Z,-3.72
2023-02-08T01:15:19.204Z,-3.73
2023-02-08T01:18:21.163Z,-3.72
2023-02-08T01:21:31.900Z,-3.73
2023-02-08T01:24:33.842Z,-3.72
2023-02-08T01:27:35.441Z,-3.70
2023-02-08T01:30:37.064Z,-3.68
2023-02-08T01:33:39.416Z,-3.67
2023-02-08T01:36:41.067Z,-3.66
2023-02-08T01:39:42.575Z,-3.68
2023-02-08T01:42:44.308Z,-3.68
2023-02-08T01:45:45.959Z,-3.67
2023-02-08T01:48:47.640Z,-3.67
2023-02-08T01:51:58.475Z,-3.68
2023-02-08T01:55:09.623Z,-3.66
2023-02-08T01:58:12.193Z,-3.62
2023-02-08T02:01:14.016Z,-3.60
2023-02-08T02:04:16.099Z,-3.59
2023-02-08T02:07:19.237Z,-3.58
2023-02-08T02:10:33.924Z,-3.56
2023-02-08T02:13:37.246Z,-3.56
2023-02-08T02:16:39.576Z,-3.55
2023-02-08T02:20:04.465Z,-3.54
2023-02-08T02:23:33.328Z,-3.53
2023-02-08T02:27:07.306Z,-3.54
2023-02-08T02:30:09.012Z,-3.54
2023-02-08T02:33:31.943Z,-3.54
2023-02-08T02:36:59.764Z,-3.53
2023-02-08T02:40:27.090Z,-3.54
2023-02-08T02:43:54.770Z,-3.57
2023-02-08T02:47:12.029Z,-3.60
2023-02-08T02:50:27.848Z,-3.61
2023-02-08T02:53:39.502Z,-3.62
2023-02-08T02:56:53.821Z,-3.62
2023-02-08T02:59:55.657Z,-3.62
2023-02-08T03:02:57.101Z,-3.62
2023-02-08T03:06:03.600Z,-3.62
2023-02-08T03:09:07.969Z,-3.65
2023-02-08T03:12:28.389Z,-3.68
2023-02-08T03:15:54.583Z,-3.70
2023-02-08T03:19:14.999Z,-3.71
2023-02-08T03:22:43.703Z,-3.72
2023-02-08T03:25:50.067Z,-3.73
2023-02-08T03:29:05.451Z,-3.72
2023-02-08T03:32:09.806Z,-3.73
2023-02-08T03:35:15.096Z,-3.74
2023-02-08T03:38:22.943Z,-3.72
2023-02-08T03:41:39.072Z,-3.71
2023-02-08T03:44:55.086Z,-3.69
2023-02-08T03:47:58.095Z,-3.69
2023-02-08T03:51:02.163Z,-3.71
2023-02-08T03:54:08.595Z,-3.74
2023-02-08T03:57:23.249Z,-3.77
2023-02-08T04:00:25.348Z,-3.78
2023-02-08T04:03:28.855Z,-3.80
2023-02-08T04:06:30.886Z,-3.81
2023-02-08T04:09:32.479Z,-3.85
2023-02-08T04:12:34.094Z,-3.92
2023-02-08T04:15:35.794Z,-3.97
2023-02-08T04:18:37.530Z,-3.98
2023-02-08T04:21:39.079Z,-3.95
2023-02-08T04:24:40.612Z,-3.93
2023-02-08T04:27:42.266Z,-3.89
2023-02-08T04:30:44.072Z,-3.87
2023-02-08T04:33:46.343Z,-3.89
2023-02-08T04:36:48.020Z,-3.91
2023-02-08T04:39:49.589Z,-3.92
2023-02-08T04:42:51.238Z,-3.91
2023-02-08T04:45:52.920Z,-3.91
2023-02-08T04:48:54.507Z,-3.91
2023-02-08T04:51:56.154Z,-3.92
2023-02-08T04:54:57.767Z,-3.94
2023-02-08T04:57:59.383Z,-3.94
2023-02-08T05:01:01.104Z,-3.95
2023-02-08T05:04:02.796Z,-3.97
2023-02-08T05:07:05.180Z,-4.07
2023-02-08T05:10:07.154Z,-4.31
2023-02-08T05:13:08.786Z,-4.50
2023-02-08T05:16:10.534Z,-4.51
2023-02-08T05:19:12.263Z,-4.47
2023-02-08T05:22:13.854Z,-4.44
2023-02-08T05:25:15.413Z,-4.40
2023-02-08T05:28:17.202Z,-4.45
2023-02-08T05:31:20.378Z,-4.50
2023-02-08T05:34:21.958Z,-4.40
2023-02-08T05:37:23.522Z,-4.25
2023-02-08T05:40:25.323Z,-4.08
2023-02-08T05:43:26.933Z,-4.21
2023-02-08T05:46:28.630Z,-4.35
2023-02-08T05:49:30.235Z,-4.42
2023-02-08T05:52:32.017Z,-4.36
2023-02-08T05:55:33.474Z,-4.18
2023-02-08T05:58:35.317Z,-4.09
2023-02-08T06:01:37.339Z,-4.23
2023-02-08T06:04:39.272Z,-4.40
2023-02-08T06:07:40.949Z,-4.50
2023-02-08T06:10:42.819Z,-4.55
2023-02-08T06:13:45.119Z,-4.55
2023-02-08T06:16:46.789Z,-4.55
2023-02-08T06:19:48.534Z,-4.56
2023-02-08T06:22:50.333Z,-4.54
2023-02-08T06:25:51.833Z,-4.54
2023-02-08T06:28:53.564Z,-4.43
2023-02-08T06:31:55.138Z,-4.24
2023-02-08T06:34:56.876Z,-4.02
2023-02-08T06:37:58.645Z,-3.93
2023-02-08T06:41:00.628Z,-3.93
2023-02-08T06:44:02.368Z,-3.92
2023-02-08T06:47:05.124Z,-3.85
2023-02-08T06:50:07.026Z,-3.74
2023-02-08T06:53:08.902Z,-3.66
2023-02-08T06:56:10.320Z,-3.61
2023-02-08T06:59:12.056Z,-3.56
2023-02-08T07:02:14.357Z,-3.50
2023-02-08T07:05:16.356Z,-3.43
2023-02-08T07:08:17.919Z,-3.39
2023-02-08T07:11:20.832Z,-3.33
2023-02-08T07:14:22.495Z,-3.26
2023-02-08T07:17:24.162Z,-3.19
2023-02-08T07:20:25.745Z,-3.13
2023-02-08T07:23:27.840Z,-2.98
2023-02-08T07:26:29.601Z,-2.87
2023-02-08T07:29:32.238Z,-2.79
2023-02-08T07:32:34.934Z,-2.74
2023-02-08T07:35:36.480Z,-2.60
2023-02-08T07:38:38.331Z,-2.45
2023-02-08T07:41:39.767Z,-2.26
2023-02-08T07:44:41.354Z,-2.00
2023-02-08T07:47:43.103Z,-1.77
2023-02-08T07:50:44.661Z,-1.60
2023-02-08T07:53:46.400Z,-1.42
2023-02-08T07:56:47.960Z,-1.27
2023-02-08T07:59:49.613Z,-1.22
2023-02-08T08:02:51.283Z,-1.31
2023-02-08T08:05:54.891Z,-1.39
2023-02-08T08:08:57.109Z,-1.42
2023-02-08T08:11:58.586Z,-1.49
2023-02-08T08:15:00.635Z,-1.60
2023-02-08T08:18:02.363Z,-1.57
2023-02-08T08:21:04.514Z,-1.48
2023-02-08T08:24:06.358Z,-1.32
2023-02-08T08:27:08.134Z,-1.20
2023-02-08T08:30:13.540Z,-1.01
2023-02-08T08:33:15.240Z,-0.80
2023-02-08T08:36:16.829Z,-0.64
2023-02-08T08:39:18.523Z,-0.50
2023-02-08T08:42:20.382Z,-0.55
2023-02-08T08:45:22.064Z,-0.64
2023-02-08T08:48:23.671Z,-0.48
2023-02-08T08:51:25.247Z,-0.39
2023-02-08T08:54:26.854Z,-0.56
2023-02-08T08:57:28.743Z,-0.43
2023-02-08T09:00:30.284Z,-0.55
2023-02-08T09:03:32.110Z,-0.47
2023-02-08T09:06:33.915Z,-0.02
2023-02-08T09:09:35.874Z,-0.06
2023-02-08T09:12:37.473Z,-0.01
2023-02-08T09:15:40.816Z,-0.15
2023-02-08T09:18:42.861Z,-0.44
2023-02-08T09:21:44.666Z,-0.46
2023-02-08T09:24:46.271Z,-0.42
2023-02-08T09:27:48.034Z,-0.52
2023-02-08T09:30:49.686Z,-0.59
2023-02-08T09:33:52.599Z,-0.41
2023-02-08T09:36:54.166Z,0.01
2023-02-08T09:39:56.185Z,0.10
2023-02-08T09:43:08.390Z,0.32
2023-02-08T09:46:26.549Z,0.41
2023-02-08T09:49:53.704Z,0.37
2023-02-08T09:53:18.168Z,0.16
2023-02-08T09:56:26.449Z,0.10
2023-02-08T09:59:30.221Z,-0.08
2023-02-08T10:02:34.517Z,-0.15
2023-02-08T10:05:36.275Z,-0.13
2023-02-08T10:08:38.024Z,-0.11
2023-02-08T10:11:44.059Z,0.19
2023-02-08T10:15:02.286Z,0.43
2023-02-08T10:18:19.263Z,0.37
2023-02-08T10:22:04.505Z,0.44
2023-02-08T10:25:17.101Z,1.25
2023-02-08T10:28:26.632Z,2.88
2023-02-08T10:32:05.448Z,2.91
2023-02-08T10:35:26.280Z,2.17
2023-02-08T10:38:45.388Z,2.25
2023-02-08T10:41:47.946Z,1.90
2023-02-08T10:45:24.227Z,2.19
2023-02-08T10:49:00.447Z,2.64
2023-02-08T10:52:02.063Z,2.34
2023-02-08T10:55:12.989Z,3.96
2023-02-08T10:58:20.526Z,5.36
2023-02-08T11:01:22.407Z,6.19
2023-02-08T11:04:24.343Z,6.77
2023-02-08T11:07:26.014Z,7.56
2023-02-08T11:10:27.919Z,7.28
2023-02-08T11:13:49.745Z,6.77
2023-02-08T11:16:53.074Z,6.31
2023-02-08T11:19:56.235Z,5.95
2023-02-08T11:22:59.050Z,5.42
2023-02-08T11:26:38.664Z,5.06
2023-02-08T11:29:40.282Z,4.75
2023-02-08T11:32:42.243Z,4.44
2023-02-08T11:35:53.334Z,4.35
2023-02-08T11:38:55.672Z,4.05
2023-02-08T11:42:00.183Z,3.68
2023-02-08T11:45:02.254Z,3.39
2023-02-08T11:48:04.536Z,3.12
2023-02-08T11:51:06.640Z,2.88
2023-02-08T11:54:32.110Z,2.62
2023-02-08T11:57:33.795Z,2.33
2023-02-08T12:00:36.517Z,2.13
2023-02-08T12:03:40.157Z,1.85
2023-02-08T12:07:11.462Z,1.74
2023-02-08T12:10:15.691Z,1.53
2023-02-08T12:13:29.580Z,1.00
2023-02-08T12:16:43.572Z,0.86
2023-02-08T12:20:36.860Z,0.90
2023-02-08T12:24:13.724Z,1.16
2023-02-08T12:27:31.536Z,1.42
2023-02-08T12:30:38.962Z,1.80
2023-02-08T12:34:22.725Z,1.96
2023-02-08T12:37:27.802Z,2.16
2023-02-08T12:41:07.349Z,2.34
2023-02-08T12:44:15.548Z,2.47
2023-02-08T12:47:58.207Z,2.62
2023-02-08T12:51:26.088Z,2.76
2023-02-08T12:54:50.862Z,2.78
2023-02-08T12:58:14.380Z,2.57
2023-02-08T13:01:20.853Z,2.60
2023-02-08T13:04:43.885Z,2.66
2023-02-08T13:07:46.704Z,2.65
2023-02-08T13:10:53.176Z,2.51
2023-02-08T13:14:04.983Z,2.49
2023-02-08T13:17:17.260Z,2.46
2023-02-08T13:20:41.982Z,2.31
2023-02-08T13:23:52.345Z,2.32
2023-02-08T13:26:54.943Z,2.22
2023-02-08T13:29:56.588Z,1.87
2023-02-08T13:32:58.716Z,1.79
2023-02-08T13:36:00.753Z,1.90
2023-02-08T13:39:05.225Z,1.86
2023-02-08T13:42:18.299Z,1.54
2023-02-08T13:45:30.087Z,1.34
2023-02-08T13:48:41.620Z,1.45
2023-02-08T13:51:52.490Z,1.61
2023-02-08T13:55:29.384Z,1.72
2023-02-08T13:58:49.561Z,1.72
2023-02-08T14:02:17.293Z,1.58
2023-02-08T14:05:47.304Z,1.47
2023-02-08T14:09:00.701Z,1.39
2023-02-08T14:12:16.264Z,1.08
2023-02-08T14:15:17.883Z,0.86
2023-02-08T14:18:26.432Z,0.85
2023-02-08T14:21:40.965Z,0.85
2023-02-08T14:25:07.145Z,0.80
2023-02-08T14:28:24.127Z,0.76
2023-02-08T14:31:45.220Z,0.73
2023-02-08T14:34:47.074Z,0.67
2023-02-08T14:37:50.703Z,0.61
2023-02-08T14:40:55.909Z,0.55
2023-02-08T14:43:57.546Z,0.47
2023-02-08T14:46:59.160Z,0.31
2023-02-08T14:50:15.832Z,0.21
2023-02-08T14:53:34.513Z,0.09
2023-02-08T14:56:47.015Z,-0.04
2023-02-08T14:59:49.201Z,-0.19
2023-02-08T15:02:51.276Z,-0.24
2023-02-08T15:06:37.720Z,-0.30
2023-02-08T15:09:41.184Z,-0.39
2023-02-08T15:12:53.400Z,-0.45
2023-02-08T15:15:56.561Z,-0.52
2023-02-08T15:18:58.321Z,-0.64
2023-02-08T15:22:32.111Z,-0.75
2023-02-08T15:25:36.374Z,-0.82
2023-02-08T15:28:44.457Z,-0.89
2023-02-08T15:31:46.602Z,-0.97
2023-02-08T15:34:53.809Z,-1.14
2023-02-08T15:37:55.902Z,-1.33
2023-02-08T15:41:05.194Z,-1.54
2023-02-08T15:44:26.262Z,-1.74
2023-02-08T15:47:35.249Z,-1.98
2023-02-08T15:50:37.236Z,-2.18
2023-02-08T15:53:41.885Z,-2.35
2023-02-08T15:56:55.478Z,-2.53
2023-02-08T15:59:57.469Z,-2.73
2023-02-08T16:03:02.110Z,-2.88
2023-02-08T16:06:06.002Z,-3.02
2023-02-08T16:09:07.708Z,-3.17
2023-02-08T16:12:20.124Z,-3.31
2023-02-08T16:15:40.360Z,-3.44
2023-02-08T16:18:47.164Z,-3.59
2023-02-08T16:21:48.901Z,-3.78
2023-02-08T16:24:50.428Z,-3.93
2023-02-08T16:27:52.120Z,-4.04
2023-02-08T16:30:55.941Z,-4.15
2023-02-08T16:34:15.958Z,-4.25
2023-02-08T16:37:28.754Z,-4.36
2023-02-08T16:40:42.140Z,-4.44
2023-02-08T16:43:44.172Z,-4.51
2023-02-08T16:46:45.883Z,-4.56
2023-02-08T16:49:50.113Z,-4.62
2023-02-08T16:52:59.680Z,-4.69
2023-02-08T16:56:01.342Z,-4.75
2023-02-08T16:59:03.257Z,-4.81
2023-02-08T17:02:11.077Z,-4.86
2023-02-08T17:05:12.817Z,-4.92
2023-02-08T17:08:20.056Z,-5.01
2023-02-08T17:11:21.734Z,-5.08
2023-02-08T17:14:23.421Z,-5.14
2023-02-08T17:17:25.112Z,-5.20
2023-02-08T17:20:29.945Z,-5.26
2023-02-08T17:23:31.823Z,-5.31
2023-02-08T17:26:41.724Z,-5.36
2023-02-08T17:29:43.304Z,-5.40
2023-02-08T17:32:44.809Z,-5.43
2023-02-08T17:35:48.584Z,-5.53
2023-02-08T17:38:50.115Z,-5.67
2023-02-08T17:41:51.735Z,-5.83
2023-02-08T17:44:53.358Z,-5.93
2023-02-08T17:47:56.257Z,-6.00
2023-02-08T17:50:57.849Z,-6.05
2023-02-08T17:53:59.620Z,-6.13
2023-02-08T17:57:01.322Z,-6.15
2023-02-08T18:00:06.233Z,-6.15
2023-02-08T18:03:08.199Z,-6.15
2023-02-08T18:06:10.792Z,-6.17
2023-02-08T18:09:12.541Z,-6.25
2023-02-08T18:12:14.267Z,-6.34
2023-02-08T18:15:18.608Z,-6.40
2023-02-08T18:18:20.202Z,-6.36
2023-02-08T18:21:23.109Z,-6.36
2023-02-08T18:24:24.762Z,-6.42
2023-02-08T18:27:26.410Z,-6.47
2023-02-08T18:30:28.167Z,-6.53
2023-02-08T18:33:29.923Z,-6.56
2023-02-08T18:36:31.554Z,-6.57
2023-02-08T18:39:33.265Z,-6.60
2023-02-08T18:42:36.259Z,-6.70
2023-02-08T18:45:38.104Z,-6.78
2023-02-08T18:48:40.385Z,-6.81
2023-02-08T18:51:43.747Z,-6.87
2023-02-08T18:54:45.453Z,-6.95
2023-02-08T18:57:47.832Z,-7.02
2023-02-08T19:00:50.193Z,-7.03
2023-02-08T19:03:52.188Z,-6.98
2023-02-08T19:06:53.766Z,-6.90
2023-02-08T19:09:55.622Z,-6.80
2023-02-08T19:12:57.149Z,-6.85
2023-02-08T19:15:58.911Z,-7.14
2023-02-08T19:19:01.400Z,-7.39
2023-02-08T19:22:02.969Z,-7.49
2023-02-08T19:25:04.847Z,-7.53
2023-02-08T19:28:06.745Z,-7.56
2023-02-08T19:31:11.319Z,-7.62
2023-02-08T19:34:13.407Z,-7.71
2023-02-08T19:37:15.281Z,-7.82
2023-02-08T19:40:17.469Z,-7.86
2023-02-08T19:43:18.976Z,-7.85
2023-02-08T19:46:23.205Z,-7.85
2023-02-08T19:49:24.874Z,-7.83
2023-02-08T19:52:26.501Z,-7.84
2023-02-08T19:55:28.092Z,-7.83
2023-02-08T19:58:31.060Z,-7.69
2023-02-08T20:01:34.211Z,-7.61
2023-02-08T20:04:35.836Z,-7.61
2023-02-08T20:07:37.394Z,-7.71
2023-02-08T20:10:43.879Z,-7.90
2023-02-08T20:13:45.903Z,-8.10
2023-02-08T20:16:47.607Z,-8.24
2023-02-08T20:19:49.241Z,-8.28
2023-02-08T20:22:51.126Z,-8.33
2023-02-08T20:26:02.325Z,-8.37
2023-02-08T20:29:04.302Z,-8.42
2023-02-08T20:32:06.245Z,-8.46
2023-02-08T20:35:08.040Z,-8.54
2023-02-08T20:38:09.637Z,-8.59
2023-02-08T20:41:13.727Z,-8.66
2023-02-08T20:44:17.749Z,-8.71
2023-02-08T20:47:19.720Z,-8.72
2023-02-08T20:50:21.283Z,-8.72
2023-02-08T20:53:22.929Z,-8.72
2023-02-08T20:56:29.597Z,-8.75
2023-02-08T20:59:31.532Z,-8.82
2023-02-08T21:02:33.097Z,-8.82
2023-02-08T21:05:34.796Z,-8.75
2023-02-08T21:08:36.415Z,-8.57
2023-02-08T21:11:38.517Z,-8.58
2023-02-08T21:14:40.170Z,-8.71
2023-02-08T21:17:42.103Z,-8.74
2023-02-08T21:20:44.059Z,-8.82
2023-02-08T21:23:46.584Z,-8.96
2023-02-08T21:26:48.233Z,-9.07
2023-02-08T21:29:51.327Z,-9.10
2023-02-08T21:32:52.980Z,-9.07
2023-02-08T21:35:54.859Z,-8.94
2023-02-08T21:38:59.349Z,-8.88
2023-02-08T21:42:00.918Z,-8.84
2023-02-08T21:45:02.707Z,-8.85
2023-02-08T21:48:04.775Z,-8.90
2023-02-08T21:51:06.475Z,-9.04
2023-02-08T21:54:12.655Z,-9.19
2023-02-08T21:57:23.712Z,-9.27
2023-02-08T22:00:25.324Z,-9.29
2023-02-08T22:03:27.007Z,-9.28
2023-02-08T22:06:28.598Z,-9.32
2023-02-08T22:09:30.452Z,-9.43
2023-02-08T22:12:31.980Z,-9.54
2023-02-08T22:15:33.509Z,-9.61
2023-02-08T22:18:35.098Z,-9.57
2023-02-08T22:21:36.636Z,-9.57
2023-02-08T22:24:38.358Z,-9.63
2023-02-08T22:27:39.880Z,-9.66
2023-02-08T22:30:41.452Z,-9.64
2023-02-08T22:33:43.131Z,-9.60
2023-02-08T22:36:44.696Z,-9.61
2023-02-08T22:39:46.305Z,-9.65
2023-02-08T22:42:47.947Z,-9.69
2023-02-08T22:45:59.686Z,-9.74
2023-02-08T22:49:01.308Z,-9.76
2023-02-08T22:52:04.153Z,-9.77
2023-02-08T22:55:06.245Z,-9.75
2023-02-08T22:58:07.838Z,-9.72
2023-02-08T23:01:15.192Z,-9.72
2023-02-08T23:04:16.838Z,-9.74
2023-02-08T23:07:18.594Z,-9.77
2023-02-08T23:10:20.225Z,-9.79
2023-02-08T23:13:21.777Z,-9.84
2023-02-08T23:16:23.539Z,-9.86
2023-02-08T23:19:25.157Z,-9.89
2023-02-08T23:22:26.822Z,-10.03
2023-02-08T23:25:28.523Z,-10.16
2023-02-08T23:28:30.136Z,-10.30
2023-02-08T23:31:32.060Z,-10.42
2023-02-08T23:34:34.764Z,-10.47
2023-02-08T23:37:36.609Z,-10.47
2023-02-08T23:40:40.316Z,-10.45
2023-02-08T23:43:42.717Z,-10.42
2023-02-08T23:46:44.314Z,-10.34
2023-02-08T23:49:46.037Z,-10.28
2023-02-08T23:52:47.643Z,-10.27
2023-02-08T23:55:49.172Z,-10.29
2023-02-08T23:58:53.322Z,-10.27
